createdAt,value
2022-10-16T00:00:22.295Z,1.88
2022-10-16T00:02:48.567Z,1.83
2022-10-16T00:05:14.881Z,2.03
2022-10-16T00:07:41.137Z,1.90
2022-10-16T00:10:07.529Z,2.20
2022-10-16T00:12:33.799Z,1.98
2022-10-16T00:15:00.089Z,2.20
2022-10-16T00:17:26.447Z,2.05
2022-10-16T00:19:52.714Z,2.33
2022-10-16T00:22:19.029Z,2.22
2022-10-16T00:24:45.288Z,2.40
2022-10-16T00:27:11.549Z,1.92
2022-10-16T00:29:37.798Z,2.50
2022-10-16T00:32:04.269Z,2.20
2022-10-16T00:34:30.578Z,2.63
2022-10-16T00:36:56.856Z,2.60
2022-10-16T00:39:23.199Z,2.22
2022-10-16T00:41:49.822Z,2.78
2022-10-16T00:46:43.030Z,2.40
2022-10-16T00:49:11.627Z,2.58
2022-10-16T00:51:39.586Z,2.65
2022-10-16T00:54:09.081Z,2.83
2022-10-16T00:56:35.546Z,2.45
2022-10-16T00:59:04.946Z,2.78
2022-10-16T01:01:31.421Z,2.80
2022-10-16T01:03:57.751Z,2.85
2022-10-16T01:06:26.124Z,2.80
2022-10-16T01:08:52.429Z,2.63
2022-10-16T01:11:23.609Z,2.65
2022-10-16T01:13:52.429Z,2.80
2022-10-16T01:16:24.269Z,2.75
2022-10-16T01:18:54.792Z,2.55
2022-10-16T01:21:24.337Z,3.03
2022-10-16T01:24:02.730Z,2.60
2022-10-16T01:26:37.851Z,2.85
2022-10-16T01:29:10.006Z,2.80
2022-10-16T01:31:38.586Z,2.60
2022-10-16T01:34:07.335Z,2.53
2022-10-16T01:36:38.036Z,2.85
2022-10-16T01:39:05.274Z,2.55
2022-10-16T01:41:34.488Z,2.67
2022-10-16T01:44:12.653Z,2.63
2022-10-16T01:46:40.539Z,3.10
2022-10-16T01:49:07.174Z,2.70
2022-10-16T01:56:26.503Z,2.95
2022-10-16T01:59:02.195Z,2.78
2022-10-16T02:01:30.807Z,3.17
2022-10-16T02:03:58.529Z,2.90
2022-10-16T02:06:25.941Z,3.08
2022-10-16T02:08:52.269Z,2.70
2022-10-16T02:11:18.516Z,2.97
2022-10-16T02:13:47.403Z,3.05
2022-10-16T02:16:14.214Z,3.20
2022-10-16T02:18:41.520Z,2.60
2022-10-16T02:21:23.431Z,3.00
2022-10-16T02:24:01.934Z,2.90
2022-10-16T02:26:42.861Z,2.92
2022-10-16T02:29:11.132Z,2.83
2022-10-16T02:31:42.055Z,3.00
2022-10-16T02:34:09.347Z,3.13
2022-10-16T02:36:36.528Z,3.58
2022-10-16T02:39:04.715Z,3.25
2022-10-16T02:41:31.571Z,3.25
2022-10-16T02:43:57.842Z,3.75
2022-10-16T02:46:24.192Z,3.70
2022-10-16T02:48:50.441Z,3.72
2022-10-16T02:51:16.723Z,3.40
2022-10-16T02:53:43.011Z,3.00
2022-10-16T02:56:09.374Z,3.53
2022-10-16T02:58:35.772Z,3.20
2022-10-16T03:01:02.220Z,3.25
2022-10-16T03:03:28.494Z,3.17
2022-10-16T03:05:54.788Z,3.20
2022-10-16T03:08:24.419Z,3.13
2022-10-16T03:10:50.914Z,2.75
2022-10-16T03:13:17.218Z,2.53
2022-10-16T03:15:44.380Z,3.13
2022-10-16T03:18:10.644Z,3.65
2022-10-16T03:20:37.061Z,3.10
2022-10-16T03:23:03.541Z,3.50
2022-10-16T03:25:29.836Z,3.40
2022-10-16T03:27:56.137Z,3.50
2022-10-16T03:30:22.439Z,3.10
2022-10-16T03:32:48.699Z,3.40
2022-10-16T03:35:15.006Z,3.25
2022-10-16T03:37:41.263Z,3.85
2022-10-16T03:40:07.818Z,3.00
2022-10-16T03:42:34.078Z,2.85
2022-10-16T03:45:00.531Z,2.45
2022-10-16T03:47:27.150Z,2.60
2022-10-16T03:49:53.728Z,2.60
2022-10-16T03:54:51.208Z,2.95
2022-10-16T03:57:17.562Z,2.50
2022-10-16T03:59:44.283Z,2.65
2022-10-16T04:04:36.742Z,2.80
2022-10-16T04:07:03.017Z,2.70
2022-10-16T04:09:29.277Z,2.60
2022-10-16T04:11:55.557Z,2.47
2022-10-16T04:14:21.941Z,2.40
2022-10-16T04:16:48.232Z,2.47
2022-10-16T04:19:14.480Z,2.75
2022-10-16T04:21:40.760Z,2.67
2022-10-16T04:24:07.171Z,2.80
2022-10-16T04:26:33.681Z,2.90
2022-10-16T04:29:00.050Z,2.40
2022-10-16T04:31:26.442Z,2.70
2022-10-16T04:33:52.711Z,2.70
2022-10-16T04:36:18.978Z,2.60
2022-10-16T04:38:45.257Z,2.60
2022-10-16T04:41:11.531Z,2.53
2022-10-16T04:43:37.922Z,2.58
2022-10-16T04:46:05.582Z,2.53
2022-10-16T04:48:32.219Z,2.40
2022-10-16T04:53:24.739Z,2.20
2022-10-16T04:55:51.502Z,2.47
2022-10-16T05:00:44.803Z,2.40
2022-10-16T05:03:11.184Z,2.55
2022-10-16T05:05:37.541Z,2.78
2022-10-16T05:08:03.915Z,2.60
2022-10-16T05:10:30.179Z,2.40
2022-10-16T05:12:56.467Z,2.60
2022-10-16T05:15:25.735Z,2.83
2022-10-16T05:17:55.701Z,2.72
2022-10-16T05:20:22.859Z,2.78
2022-10-16T05:22:49.286Z,2.67
2022-10-16T05:25:15.607Z,2.67
2022-10-16T05:27:41.885Z,2.42
2022-10-16T05:30:11.529Z,2.63
2022-10-16T05:32:38.866Z,2.50
2022-10-16T05:35:07.549Z,2.50
2022-10-16T05:37:36.466Z,2.70
2022-10-16T05:40:04.860Z,2.75
2022-10-16T05:42:31.238Z,2.60
2022-10-16T05:47:24.174Z,2.65
2022-10-16T05:54:43.266Z,2.55
2022-10-16T05:57:09.710Z,2.30
2022-10-16T05:59:36.074Z,2.55
2022-10-16T06:02:02.349Z,2.70
2022-10-16T06:04:28.658Z,2.70
2022-10-16T06:06:54.925Z,2.83
2022-10-16T06:09:21.221Z,2.70
2022-10-16T06:11:47.561Z,2.72
2022-10-16T06:14:13.809Z,3.17
2022-10-16T06:16:40.193Z,2.80
2022-10-16T06:19:07.165Z,2.72
2022-10-16T06:21:33.569Z,2.63
2022-10-16T06:23:59.869Z,2.70
2022-10-16T06:26:27.234Z,3.15
2022-10-16T06:28:55.256Z,2.85
2022-10-16T06:31:21.802Z,2.40
2022-10-16T06:33:50.922Z,2.75
2022-10-16T06:36:18.063Z,2.58
2022-10-16T06:38:44.755Z,2.38
2022-10-16T06:41:15.104Z,2.50
2022-10-16T06:43:41.683Z,2.65
2022-10-16T06:48:37.655Z,2.53
2022-10-16T06:51:14.527Z,2.60
2022-10-16T06:54:01.235Z,2.58
2022-10-16T06:56:28.744Z,2.75
2022-10-16T06:58:55.495Z,2.30
2022-10-16T07:01:23.558Z,2.55
2022-10-16T07:03:49.923Z,2.40
2022-10-16T07:06:17.586Z,2.20
2022-10-16T07:08:44.901Z,2.70
2022-10-16T07:11:12.407Z,2.47
2022-10-16T07:13:39.337Z,2.30
2022-10-16T07:16:06.842Z,2.22
2022-10-16T07:18:33.446Z,2.60
2022-10-16T07:23:25.945Z,2.45
2022-10-16T07:25:55.723Z,2.08
2022-10-16T07:28:22.843Z,1.90
2022-10-16T07:30:49.149Z,2.17
2022-10-16T07:33:15.512Z,1.92
2022-10-16T07:35:50.862Z,2.50
2022-10-16T07:38:17.200Z,2.30
2022-10-16T07:40:43.489Z,2.20
2022-10-16T07:43:09.748Z,2.80
2022-10-16T07:45:36.205Z,2.22
2022-10-16T07:48:02.947Z,2.65
2022-10-16T07:50:29.209Z,2.90
2022-10-16T07:52:55.458Z,2.28
2022-10-16T07:55:21.724Z,2.20
2022-10-16T07:57:48.026Z,2.60
2022-10-16T08:00:14.833Z,2.50
2022-10-16T08:02:41.423Z,2.90
2022-10-16T08:07:33.916Z,2.10
2022-10-16T08:10:00.297Z,2.65
2022-10-16T08:12:26.826Z,2.42
2022-10-16T08:17:19.315Z,2.45
2022-10-16T08:19:46.402Z,2.20
2022-10-16T08:24:44.012Z,2.38
2022-10-16T08:27:10.364Z,1.95
2022-10-16T08:29:36.648Z,2.10
2022-10-16T08:32:04.760Z,1.80
2022-10-16T08:34:31.019Z,1.77
2022-10-16T08:36:57.321Z,2.20
2022-10-16T08:39:23.619Z,2.00
2022-10-16T08:41:49.919Z,1.85
2022-10-16T08:44:19.247Z,2.05
2022-10-16T08:46:51.130Z,1.80
2022-10-16T08:49:17.671Z,1.70
2022-10-16T08:54:22.053Z,1.70
2022-10-16T08:56:48.471Z,1.80
2022-10-16T08:59:16.949Z,1.95
2022-10-16T09:01:47.383Z,2.08
2022-10-16T09:04:25.619Z,2.20
2022-10-16T09:07:10.740Z,1.80
2022-10-16T09:09:44.133Z,1.80
2022-10-16T09:12:29.089Z,2.38
2022-10-16T09:15:00.528Z,2.00
2022-10-16T09:17:34.515Z,1.88
2022-10-16T09:20:03.891Z,1.98
2022-10-16T09:22:32.094Z,1.90
2022-10-16T09:25:01.498Z,1.80
2022-10-16T09:27:27.993Z,1.80
2022-10-16T09:29:58.912Z,1.85
2022-10-16T09:32:26.355Z,2.10
2022-10-16T09:39:55.074Z,1.83
2022-10-16T09:42:28.224Z,1.60
2022-10-16T09:44:54.751Z,1.90
2022-10-16T09:47:25.935Z,1.77
2022-10-16T09:50:05.165Z,2.38
2022-10-16T09:52:31.573Z,1.85
2022-10-16T09:57:24.954Z,2.00
2022-10-16T09:59:52.409Z,1.50
2022-10-16T10:02:20.391Z,2.33
2022-10-16T10:04:55.174Z,1.67
2022-10-16T10:07:24.778Z,2.03
2022-10-16T10:09:51.330Z,1.75
2022-10-16T10:12:24.478Z,2.17
2022-10-16T10:14:54.068Z,2.00
2022-10-16T10:17:22.079Z,2.10
2022-10-16T10:19:50.158Z,2.40
2022-10-16T10:22:31.811Z,1.65
2022-10-16T10:25:04.105Z,2.00
2022-10-16T10:27:35.205Z,2.08
2022-10-16T10:30:14.631Z,1.70
2022-10-16T10:33:01.174Z,1.95
2022-10-16T10:35:40.595Z,2.20
2022-10-16T10:38:16.130Z,1.88
2022-10-16T10:40:42.413Z,1.70
2022-10-16T10:43:08.654Z,2.20
2022-10-16T10:45:55.191Z,1.75
2022-10-16T10:48:33.715Z,1.70
2022-10-16T10:51:11.253Z,1.85
2022-10-16T10:53:45.432Z,1.70
2022-10-16T10:56:37.731Z,1.83
2022-10-16T10:59:18.943Z,1.65
2022-10-16T11:01:51.602Z,2.10
2022-10-16T11:04:25.623Z,1.58
2022-10-16T11:07:03.174Z,1.80
2022-10-16T11:09:32.902Z,1.63
2022-10-16T11:12:02.250Z,1.92
2022-10-16T11:14:51.578Z,1.63
2022-10-16T11:17:20.634Z,2.20
2022-10-16T11:19:52.028Z,1.63
2022-10-16T11:22:28.343Z,1.73
2022-10-16T11:25:03.826Z,1.80
2022-10-16T11:27:38.929Z,1.90
2022-10-16T11:30:07.731Z,1.80
2022-10-16T11:32:37.774Z,1.80
2022-10-16T11:35:15.383Z,2.22
2022-10-16T11:37:44.203Z,1.77
2022-10-16T11:40:20.408Z,1.55
2022-10-16T11:45:28.361Z,1.67
2022-10-16T11:48:07.316Z,1.70
2022-10-16T11:50:37.204Z,1.55
2022-10-16T11:53:14.532Z,1.60
2022-10-16T11:55:44.753Z,1.48
2022-10-16T11:58:16.387Z,1.38
2022-10-16T12:00:45.586Z,1.52
2022-10-16T12:03:30.265Z,1.25
2022-10-16T12:06:03.230Z,1.58
2022-10-16T12:08:29.815Z,1.50
2022-10-16T12:11:07.155Z,1.63
2022-10-16T12:13:40.489Z,1.50
2022-10-16T12:16:13.057Z,1.58
2022-10-16T12:18:40.235Z,1.50
2022-10-16T12:21:07.766Z,1.98
2022-10-16T12:23:38.258Z,1.30
2022-10-16T12:26:04.825Z,1.50
2022-10-16T12:28:32.825Z,1.38
2022-10-16T12:30:59.192Z,1.40
2022-10-16T12:33:33.131Z,1.25
2022-10-16T12:36:01.053Z,1.50
2022-10-16T12:38:28.823Z,1.63
2022-10-16T12:41:00.498Z,1.52
2022-10-16T12:43:29.847Z,1.73
2022-10-16T12:46:02.291Z,1.55
2022-10-16T12:48:37.097Z,1.58
2022-10-16T12:51:30.786Z,1.65
2022-10-16T12:54:16.857Z,1.58
2022-10-16T12:56:49.210Z,1.83
2022-10-16T12:59:15.455Z,1.73
2022-10-16T13:01:41.767Z,1.73
2022-10-16T13:04:20.208Z,2.00
2022-10-16T13:06:50.144Z,2.33
2022-10-16T13:09:20.936Z,2.03
2022-10-16T13:11:47.299Z,2.10
2022-10-16T13:14:17.020Z,1.98
2022-10-16T13:16:53.443Z,2.15
2022-10-16T13:19:19.702Z,1.80
2022-10-16T13:21:51.309Z,2.22
2022-10-16T13:24:17.554Z,2.47
2022-10-16T13:27:06.480Z,1.80
2022-10-16T13:29:33.476Z,1.70
2022-10-16T13:32:01.738Z,1.70
2022-10-16T13:34:28.483Z,1.98
2022-10-16T13:36:54.868Z,1.75
2022-10-16T13:39:28.949Z,1.83
2022-10-16T13:42:02.476Z,1.90
2022-10-16T13:44:34.623Z,2.75
2022-10-16T13:47:01.528Z,1.92
2022-10-16T13:49:27.991Z,1.50
2022-10-16T13:51:55.077Z,1.70
2022-10-16T13:54:21.402Z,1.73
2022-10-16T13:56:49.506Z,1.63
2022-10-16T13:59:29.542Z,1.50
2022-10-16T14:01:57.374Z,1.63
2022-10-16T14:04:24.375Z,1.80
2022-10-16T14:06:51.626Z,1.88
2022-10-16T14:09:27.454Z,1.60
2022-10-16T14:12:01.235Z,1.73
2022-10-16T14:14:36.489Z,2.28
2022-10-16T14:17:03.999Z,2.00
2022-10-16T14:19:31.224Z,1.95
2022-10-16T14:21:59.092Z,1.65
2022-10-16T14:24:31.715Z,1.60
2022-10-16T14:26:58.323Z,1.90
2022-10-16T14:29:25.817Z,1.73
2022-10-16T14:32:15.071Z,1.40
2022-10-16T14:34:41.420Z,1.50
2022-10-16T14:39:40.118Z,1.50
2022-10-16T14:42:14.855Z,1.98
2022-10-16T14:44:41.281Z,1.85
2022-10-16T14:47:09.022Z,2.10
2022-10-16T14:49:35.463Z,2.35
2022-10-16T14:52:02.527Z,2.03
2022-10-16T14:54:28.777Z,1.80
2022-10-16T14:56:58.635Z,1.75
2022-10-16T14:59:28.510Z,1.75
2022-10-16T15:01:54.814Z,2.40
2022-10-16T15:06:47.457Z,1.98
2022-10-16T15:09:13.978Z,1.80
2022-10-16T15:11:43.466Z,1.90
2022-10-16T15:16:47.266Z,2.20
2022-10-16T15:19:13.812Z,1.60
2022-10-16T15:21:40.325Z,1.58
2022-10-16T15:24:10.082Z,1.58
2022-10-16T15:26:36.649Z,2.03
2022-10-16T15:29:03.384Z,2.22
2022-10-16T15:31:29.710Z,2.30
2022-10-16T15:36:29.082Z,2.20
2022-10-16T15:38:55.640Z,2.30
2022-10-16T15:41:22.210Z,2.33
2022-10-16T15:43:49.210Z,2.28
2022-10-16T15:46:16.077Z,4.22
2022-10-16T15:48:42.487Z,3.28
2022-10-16T15:53:35.324Z,3.05
2022-10-16T15:56:07.944Z,2.95
2022-10-16T15:58:34.474Z,2.83
2022-10-16T16:01:02.290Z,3.03
2022-10-16T16:03:29.400Z,3.00
2022-10-16T16:05:55.915Z,2.95
2022-10-16T16:08:22.236Z,3.17
2022-10-16T16:11:07.054Z,3.20
2022-10-16T16:13:33.766Z,3.30
2022-10-16T16:16:00.119Z,4.00
2022-10-16T16:18:26.757Z,4.03
2022-10-16T16:20:53.397Z,4.05
2022-10-16T16:23:20.705Z,4.25
2022-10-16T16:26:02.554Z,4.25
2022-10-16T16:28:28.955Z,4.68
2022-10-16T16:35:47.675Z,5.15
2022-10-16T16:38:14.012Z,4.65
2022-10-16T16:40:40.278Z,5.20
2022-10-16T16:43:06.541Z,5.15
2022-10-16T16:45:35.898Z,5.00
2022-10-16T16:48:02.321Z,5.68
2022-10-16T16:52:54.910Z,5.65
2022-10-16T16:55:21.178Z,5.05
2022-10-16T16:57:49.216Z,6.00
2022-10-16T17:00:15.853Z,5.63
2022-10-16T17:02:44.156Z,5.63
2022-10-16T17:05:10.625Z,5.68
2022-10-16T17:12:30.102Z,5.93
2022-10-16T17:14:56.799Z,5.65
2022-10-16T17:17:23.115Z,5.53
2022-10-16T17:19:52.658Z,6.40
2022-10-16T17:22:19.287Z,6.13
2022-10-16T17:24:50.470Z,5.80
2022-10-16T17:27:16.835Z,5.75
2022-10-16T17:29:43.106Z,6.05
2022-10-16T17:32:09.450Z,5.65
2022-10-16T17:34:36.373Z,6.40
2022-10-16T17:37:02.796Z,5.43
2022-10-16T17:39:29.104Z,5.70
2022-10-16T17:41:55.644Z,5.60
2022-10-16T17:46:49.323Z,4.82
2022-10-16T17:49:15.832Z,4.88
2022-10-16T17:54:08.714Z,5.97
2022-10-16T18:01:29.872Z,7.45
2022-10-16T18:04:00.354Z,7.95
2022-10-16T18:06:27.035Z,8.30
2022-10-16T18:08:54.026Z,8.20
2022-10-16T18:11:21.095Z,8.77
2022-10-16T18:13:47.667Z,8.02
2022-10-16T18:33:17.530Z,8.18
2022-10-16T18:35:43.797Z,8.18
2022-10-16T18:38:10.065Z,7.72
2022-10-16T18:40:36.395Z,8.55
2022-10-16T18:43:02.653Z,7.75
2022-10-16T18:45:28.982Z,6.32
2022-10-16T18:47:55.235Z,6.65
2022-10-16T18:50:22.056Z,5.95
2022-10-16T18:52:48.750Z,5.63
2022-10-16T18:55:15.248Z,5.00
2022-10-16T19:05:04.010Z,8.07
2022-10-16T19:07:32.675Z,7.63
2022-10-16T19:09:59.299Z,8.15
2022-10-16T19:14:52.210Z,13.25
2022-10-16T19:17:18.493Z,12.10
2022-10-16T19:19:44.801Z,11.70
2022-10-16T19:22:11.750Z,12.23
2022-10-16T19:24:38.439Z,11.27
2022-10-16T19:27:05.002Z,11.77
2022-10-16T19:34:24.267Z,9.52
2022-10-16T19:36:52.734Z,10.35
2022-10-16T19:41:47.473Z,10.00
2022-10-16T19:44:15.327Z,8.57
2022-10-16T19:46:42.026Z,8.77
2022-10-16T19:49:09.485Z,9.55
2022-10-16T19:51:36.196Z,9.75
2022-10-16T19:54:03.978Z,10.75
2022-10-16T19:56:31.322Z,10.25
2022-10-16T19:58:57.883Z,11.07
2022-10-16T20:16:04.950Z,9.75
2022-10-16T20:18:31.277Z,10.07
2022-10-16T20:20:57.852Z,10.40
2022-10-16T20:28:18.289Z,8.75
2022-10-16T20:30:45.590Z,9.20
2022-10-16T20:33:12.504Z,9.20
2022-10-16T20:35:39.703Z,9.38
2022-10-16T20:38:05.986Z,10.00
2022-10-16T20:40:36.277Z,9.50
2022-10-16T20:43:03.321Z,9.10
2022-10-16T20:45:30.956Z,9.23
2022-10-16T20:47:58.044Z,9.40
2022-10-16T20:55:19.622Z,8.05
2022-10-16T20:57:45.934Z,8.15
2022-10-16T21:00:12.686Z,8.75
2022-10-16T21:02:38.964Z,8.82
2022-10-16T21:05:05.498Z,7.47
2022-10-16T21:07:31.767Z,8.73
2022-10-16T21:09:58.433Z,9.18
2022-10-16T21:12:25.533Z,9.20
2022-10-16T21:15:13.262Z,9.07
2022-10-16T21:17:38.649Z,8.25
2022-10-16T21:24:57.528Z,8.15
2022-10-16T21:27:23.795Z,8.30
2022-10-16T21:29:51.964Z,8.55
2022-10-16T21:32:18.245Z,8.63
2022-10-16T21:34:44.501Z,8.30
2022-10-16T21:37:10.770Z,8.32
2022-10-16T21:39:37.034Z,8.43
2022-10-16T21:42:03.450Z,8.50
2022-10-16T21:44:29.778Z,9.27
2022-10-16T21:46:56.027Z,9.02
2022-10-16T21:49:22.293Z,8.30
2022-10-16T21:51:49.599Z,8.10
2022-10-16T21:54:17.728Z,7.80
2022-10-16T21:56:44.441Z,8.38
2022-10-16T21:59:12.038Z,8.27
2022-10-16T22:01:38.353Z,8.05
2022-10-16T22:04:04.757Z,8.48
2022-10-16T22:06:31.091Z,7.80
2022-10-16T22:08:59.750Z,7.88
2022-10-16T22:11:32.636Z,8.32
2022-10-16T22:13:58.899Z,8.55
2022-10-16T22:16:26.169Z,8.13
2022-10-16T22:18:53.491Z,8.73
2022-10-16T22:21:19.785Z,8.55
2022-10-16T22:23:46.082Z,8.43
2022-10-16T22:26:12.561Z,8.68
2022-10-16T22:28:39.689Z,8.55
2022-10-16T22:31:07.477Z,8.68
2022-10-16T22:36:06.517Z,8.80
2022-10-16T22:38:33.383Z,9.10
2022-10-16T22:41:04.125Z,8.70
2022-10-16T22:43:30.430Z,9.30
2022-10-16T22:46:01.263Z,8.07
2022-10-16T22:48:27.518Z,9.15
2022-10-16T22:50:54.301Z,8.88
2022-10-16T22:53:20.569Z,9.00
2022-10-16T22:55:46.838Z,8.48
2022-10-16T22:58:13.118Z,8.52
2022-10-16T23:00:40.947Z,9.38
2022-10-16T23:03:07.234Z,9.38
2022-10-16T23:05:33.526Z,9.30
2022-10-16T23:07:59.800Z,8.70
2022-10-16T23:10:29.661Z,8.57
2022-10-16T23:12:55.942Z,8.52
2022-10-16T23:15:22.242Z,8.75
2022-10-16T23:17:48.503Z,10.05
2022-10-16T23:20:14.812Z,8.75
2022-10-16T23:22:41.142Z,8.98
2022-10-16T23:25:08.950Z,8.38
2022-10-16T23:27:35.255Z,9.00
2022-10-16T23:30:01.608Z,7.55
2022-10-16T23:32:28.148Z,9.30
2022-10-16T23:34:54.605Z,9.73
2022-10-16T23:37:20.888Z,8.95
2022-10-16T23:39:47.282Z,8.30
2022-10-16T23:42:13.534Z,9.30
2022-10-16T23:44:39.806Z,9.48
2022-10-16T23:47:06.050Z,10.18
2022-10-16T23:49:32.363Z,9.77
2022-10-16T23:51:58.639Z,9.50
2022-10-16T23:54:24.964Z,10.43
2022-10-16T23:56:51.267Z,10.35
2022-10-16T23:59:17.658Z,10.43
